Time;durP1;ratioP1;P1;durP2;ratioP2;P2;SDS_P1;SDS_P2;PMS_P1;PMS_P2;Temp;Humidity;BMP_temperature;BMP_pressure;BME280_temperature;BME280_humidity;BME280_pressure;Samples;Min_cycle;Max_cycle;Signal;HPM_P1;HPM_P2
2022/06/17 00:01:30;;;;;;;7.35;6.38;;;;;;;17.70;64.05;102154.41;5057194;28;20046;-92
2022/06/17 00:03:56;;;;;;;8.30;7.50;;;;;;;17.63;63.63;102140.44;5054136;28;20184;-92
2022/06/17 00:06:24;;;;;;;10.10;7.10;;;;;;;17.56;64.21;102138.22;5053293;28;20077;-90
2022/06/17 00:08:52;;;;;;;8.82;7.10;;;;;;;17.57;64.51;102134.56;5063170;28;20041;-90
2022/06/17 00:11:31;;;;;;;8.93;6.80;;;;;;;17.57;64.42;102139.94;5070649;28;20029;-91
2022/06/17 00:13:57;;;;;;;10.55;7.20;;;;;;;17.54;64.56;102127.53;5073553;28;20033;-91
2022/06/17 00:16:24;;;;;;;10.20;8.23;;;;;;;17.47;64.66;102127.97;5066858;28;20016;-91
2022/06/17 00:18:49;;;;;;;10.40;7.95;;;;;;;17.48;64.80;102135.13;5061469;28;20028;-90
2022/06/17 00:21:34;;;;;;;10.38;7.95;;;;;;;17.46;64.35;102131.63;5075307;28;20037;-91
2022/06/17 00:24:00;;;;;;;13.57;8.68;;;;;;;17.41;65.17;102138.16;5067261;28;20079;-90
2022/06/17 00:26:26;;;;;;;11.95;8.93;;;;;;;17.38;64.93;102145.53;5056406;28;20048;-92
2022/06/17 00:28:51;;;;;;;10.02;8.48;;;;;;;17.30;65.47;102151.38;5049170;28;20044;-91
2022/06/17 00:31:16;;;;;;;8.02;7.07;;;;;;;17.30;66.07;102151.38;5050304;28;20517;-92
2022/06/17 00:33:42;;;;;;;7.85;6.50;;;;;;;17.24;66.76;102157.13;5058714;28;20052;-90
2022/06/17 00:36:17;;;;;;;7.18;6.38;;;;;;;17.12;66.30;102139.00;5064695;28;20059;-91
2022/06/17 00:38:43;;;;;;;8.10;6.57;;;;;;;16.95;67.33;102145.34;5069858;28;20016;-91
2022/06/17 00:41:26;;;;;;;9.07;7.18;;;;;;;16.98;66.49;102147.00;5068263;28;20056;-92
2022/06/17 00:43:52;;;;;;;8.63;7.45;;;;;;;16.89;67.43;102153.78;5077015;28;20068;-91
2022/06/17 00:46:30;;;;;;;7.70;6.90;;;;;;;16.85;67.78;102158.44;5052730;28;20064;-91
2022/06/17 00:49:14;;;;;;;9.10;7.28;;;;;;;16.82;67.05;102164.00;5046590;28;20029;-91
2022/06/17 00:51:44;;;;;;;9.30;7.35;;;;;;;16.80;67.65;102165.88;5049945;28;20081;-92
2022/06/17 00:54:25;;;;;;;11.68;7.40;;;;;;;16.81;67.15;102159.56;5054866;28;20029;-91
2022/06/17 00:56:51;;;;;;;8.55;7.03;;;;;;;16.68;68.52;102147.75;5061913;28;20187;-90
2022/06/17 00:59:16;;;;;;;8.57;7.78;;;;;;;16.68;68.64;102156.69;5052116;28;20018;-92
2022/06/17 01:01:51;;;;;;;8.30;7.50;;;;;;;16.69;67.85;102152.16;5046977;28;20036;-93
2022/06/17 01:04:23;;;;;;;13.07;8.05;;;;;;;16.66;68.40;102149.63;5058483;28;20116;-93
2022/06/17 01:07:14;;;;;;;10.85;8.02;;;;;;;16.75;67.10;102157.22;5050099;28;20052;-92
2022/06/17 01:09:57;;;;;;;8.85;7.95;;;;;;;16.74;67.92;102154.63;5052151;28;20431;-92
2022/06/17 01:12:33;;;;;;;11.73;8.37;;;;;;;16.75;67.50;102162.59;5056862;28;20025;-93
2022/06/17 01:14:59;;;;;;;9.95;7.85;;;;;;;16.70;68.29;102156.56;5041701;28;20029;-92
2022/06/17 01:17:26;;;;;;;12.93;8.93;;;;;;;16.67;67.58;102148.69;5042176;28;20028;-91
2022/06/17 01:19:54;;;;;;;12.35;9.27;;;;;;;16.70;67.50;102148.50;5046417;28;20033;-91
2022/06/17 01:22:25;;;;;;;11.52;10.10;;;;;;;16.69;67.21;102147.66;5063594;28;20025;-92
2022/06/17 01:25:07;;;;;;;11.18;9.70;;;;;;;16.66;67.87;102153.19;5053266;28;20029;-92
2022/06/17 01:27:38;;;;;;;12.75;10.00;;;;;;;16.61;67.35;102149.91;5040134;28;20025;-91
2022/06/17 01:30:06;;;;;;;13.85;10.68;;;;;;;16.66;67.42;102155.88;5047257;28;20104;-92
2022/06/17 01:32:36;;;;;;;15.30;10.85;;;;;;;16.59;66.49;102142.84;5052260;28;20029;-91
2022/06/17 01:35:03;;;;;;;17.05;11.25;;;;;;;16.62;66.05;102146.25;5053101;28;20029;-93
2022/06/17 01:37:30;;;;;;;13.40;12.00;;;;;;;16.60;64.83;102142.78;5057153;28;20033;-92
2022/06/17 01:39:56;;;;;;;15.25;12.45;;;;;;;16.59;64.78;102140.16;5052700;28;20355;-93
2022/06/17 01:42:23;;;;;;;17.88;12.45;;;;;;;16.55;64.58;102136.78;5052985;28;20032;-94
2022/06/17 01:44:50;;;;;;;15.27;12.82;;;;;;;16.51;64.52;102142.41;5057569;28;20029;-92
2022/06/17 01:47:20;;;;;;;16.38;13.45;;;;;;;16.48;64.79;102130.03;5037310;28;20029;-92
2022/06/17 01:49:57;;;;;;;17.65;12.70;;;;;;;16.48;64.72;102130.03;5053237;28;20072;-90
2022/06/17 01:52:28;;;;;;;14.95;12.20;;;;;;;16.48;66.14;102145.28;5057756;28;20098;-91
2022/06/17 01:55:01;;;;;;;15.40;11.73;;;;;;;16.46;66.23;102145.34;5046418;28;20664;-92
2022/06/17 01:57:35;;;;;;;14.02;11.50;;;;;;;16.38;66.61;102150.28;5045415;28;20025;-91
2022/06/17 02:00:05;;;;;;;;;;;;;;;16.46;64.31;102152.56;5051179;28;20029;-91
2022/06/17 02:02:31;;;;;;;13.65;11.70;;;;;;;16.31;67.03;102151.59;5048364;28;20278;-91
2022/06/17 02:05:03;;;;;;;13.93;11.57;;;;;;;16.27;67.52;102150.00;5057904;28;20057;-91
2022/06/17 02:07:36;;;;;;;14.77;11.55;;;;;;;16.31;67.14;102151.59;5049623;28;20108;-91
2022/06/17 02:10:03;;;;;;;13.88;10.73;;;;;;;16.25;67.29;102147.38;5050897;28;20029;-91
2022/06/17 02:12:30;;;;;;;12.65;10.77;;;;;;;16.17;67.65;102146.94;5076124;28;20039;-92
2022/06/17 02:14:56;;;;;;;13.48;11.80;;;;;;;16.22;67.76;102152.06;5058470;28;20072;-90
2022/06/17 02:17:26;;;;;;;12.85;11.45;;;;;;;16.18;67.24;102140.63;5050622;28;20035;-91
2022/06/17 02:19:51;;;;;;;14.05;11.60;;;;;;;16.16;67.63;102139.84;5043538;28;20522;-91
2022/06/17 02:22:24;;;;;;;15.48;11.93;;;;;;;16.22;67.39;102147.59;5052223;28;20044;-92
2022/06/17 02:24:52;;;;;;;13.73;10.83;;;;;;;16.15;67.74;102140.78;5045761;28;20041;-92
2022/06/17 02:27:19;;;;;;;13.70;11.30;;;;;;;16.17;67.57;102144.25;5054855;28;20330;-91
2022/06/17 02:29:46;;;;;;;12.80;11.60;;;;;;;16.15;68.01;102140.78;5047222;28;20013;-91
2022/06/17 02:32:12;;;;;;;13.23;11.00;;;;;;;16.15;68.08;102143.47;5064958;28;20025;-91
2022/06/17 02:34:58;;;;;;;13.23;11.23;;;;;;;16.05;68.39;102139.53;5053716;28;20049;-91
2022/06/17 02:37:25;;;;;;;12.80;11.45;;;;;;;16.05;68.52;102150.28;5050625;28;20024;-90
2022/06/17 02:39:52;;;;;;;13.10;10.63;;;;;;;16.06;68.64;102154.72;5049845;28;20122;-90
2022/06/17 02:42:27;;;;;;;12.82;11.55;;;;;;;16.03;68.33;102150.38;5054632;28;20202;-91
2022/06/17 02:45:17;;;;;;;13.57;12.18;;;;;;;16.06;66.86;102143.97;5052638;28;20071;-92
2022/06/17 02:47:43;;;;;;;16.40;13.00;;;;;;;16.01;67.20;102152.28;5050171;28;20045;-91
2022/06/17 02:50:16;;;;;;;15.15;12.80;;;;;;;15.98;67.04;102148.88;5049449;28;20645;-92
2022/06/17 02:52:42;;;;;;;;;;;;;;;16.05;65.56;102140.44;5055193;28;20040;-91
2022/06/17 02:55:26;;;;;;;15.98;13.07;;;;;;;15.97;66.52;102141.75;5053177;28;19917;-91
2022/06/17 02:57:55;;;;;;;16.23;13.80;;;;;;;15.86;66.96;102136.97;5052847;28;20032;-92
2022/06/17 03:00:21;;;;;;;14.77;13.10;;;;;;;15.87;66.68;102136.88;5054309;28;20103;-92
2022/06/17 03:02:56;;;;;;;15.77;14.07;;;;;;;15.83;67.03;102131.75;5051099;28;20067;-90
2022/06/17 03:05:25;;;;;;;17.23;14.40;;;;;;;15.85;67.32;102143.28;5053553;28;20045;-91
2022/06/17 03:07:51;;;;;;;15.40;13.77;;;;;;;15.89;67.34;102139.50;5064415;28;20029;-91
2022/06/17 03:10:24;;;;;;;15.55;13.98;;;;;;;15.86;67.53;102137.84;5056182;28;20031;-91
2022/06/17 03:12:55;;;;;;;16.87;14.83;;;;;;;15.86;67.58;102140.53;5057352;28;20066;-90
2022/06/17 03:15:22;;;;;;;14.23;12.82;;;;;;;15.85;67.62;102136.09;5055760;28;20313;-90
2022/06/17 03:17:47;;;;;;;14.63;13.18;;;;;;;15.80;68.21;102124.75;5055737;28;20025;-90
2022/06/17 03:20:21;;;;;;;17.30;13.65;;;;;;;15.83;68.04;102140.66;5064594;28;20032;-92
2022/06/17 03:22:50;;;;;;;15.02;13.50;;;;;;;15.75;68.44;102129.47;5075368;28;20024;-91
2022/06/17 03:25:38;;;;;;;15.32;13.82;;;;;;;15.76;68.09;102135.69;5053875;28;20411;-91
2022/06/17 03:28:08;;;;;;;16.83;13.43;;;;;;;15.74;68.03;102138.47;5056700;28;20085;-91
2022/06/17 03:30:38;;;;;;;16.55;13.95;;;;;;;15.72;67.95;102142.16;5053450;28;20029;-90
2022/06/17 03:33:25;;;;;;;16.17;14.35;;;;;;;15.76;67.44;102155.38;5053024;28;20088;-92
2022/06/17 03:35:58;;;;;;;17.20;13.93;;;;;;;15.73;67.87;102155.53;5051496;28;20025;-90
2022/06/17 03:38:35;;;;;;;16.13;13.98;;;;;;;15.76;67.39;102152.69;5051190;28;20025;-91
2022/06/17 03:41:08;;;;;;;16.83;14.75;;;;;;;15.73;67.88;102147.47;5055159;28;20100;-91
2022/06/17 03:43:40;;;;;;;17.43;14.60;;;;;;;15.79;67.52;102157.03;5080651;28;20029;-90
2022/06/17 03:46:07;;;;;;;21.20;15.00;;;;;;;15.89;67.54;102166.34;5061000;28;20302;-90
2022/06/17 03:48:54;;;;;;;19.23;14.85;;;;;;;16.01;67.24;102175.56;5065890;28;20028;-90
2022/06/17 03:51:24;;;;;;;20.55;15.18;;;;;;;16.02;67.26;102169.25;5065250;28;20017;-90
2022/06/17 03:53:51;;;;;;;16.70;14.27;;;;;;;16.08;67.58;102183.22;5062620;28;20029;-92
2022/06/17 03:56:23;;;;;;;15.52;13.93;;;;;;;16.15;67.37;102187.31;5061399;28;20383;-91
2022/06/17 03:58:49;;;;;;;18.17;14.18;;;;;;;16.16;67.43;102185.50;5068990;28;20032;-92
2022/06/17 04:01:27;;;;;;;19.67;14.40;;;;;;;16.22;66.95;102189.66;5107558;28;20032;-91
2022/06/17 04:04:00;;;;;;;17.17;14.38;;;;;;;16.30;66.71;102185.66;5084691;28;20098;-91
2022/06/17 04:06:39;;;;;;;15.60;14.10;;;;;;;16.25;65.99;102165.34;5065077;28;20051;-91
2022/06/17 04:09:18;;;;;;;16.08;13.80;;;;;;;16.38;66.16;102175.31;5085441;28;20036;-92
2022/06/17 04:11:47;;;;;;;16.55;13.52;;;;;;;16.35;65.88;102164.78;5053335;28;20017;-91
2022/06/17 04:14:21;;;;;;;16.00;13.85;;;;;;;16.40;65.91;102168.06;5054521;28;20037;-90
2022/06/17 04:17:04;;;;;;;15.25;13.40;;;;;;;16.44;65.75;102166.94;5057574;28;20050;-90
2022/06/17 04:19:30;;;;;;;16.42;14.13;;;;;;;16.43;65.76;102167.91;5054312;28;20032;-89
2022/06/17 04:22:11;;;;;;;15.50;13.43;;;;;;;16.46;65.77;102166.84;5060610;28;20132;-91
2022/06/17 04:24:37;;;;;;;15.52;13.13;;;;;;;16.50;65.64;102176.50;5047081;28;20036;-92
2022/06/17 04:27:06;;;;;;;17.83;14.43;;;;;;;16.50;66.06;102178.31;5054413;28;20037;-91
2022/06/17 04:29:40;;;;;;;17.65;13.88;;;;;;;16.49;65.51;102164.00;5049784;28;20033;-90
2022/06/17 04:32:13;;;;;;;15.85;14.25;;;;;;;16.57;65.57;102167.16;5061113;28;20063;-91
2022/06/17 04:34:39;;;;;;;15.93;13.40;;;;;;;16.60;65.55;102163.44;5069035;28;20033;-91
2022/06/17 04:37:09;;;;;;;16.95;13.40;;;;;;;16.56;65.74;102154.66;5046431;28;20090;-91
2022/06/17 04:39:48;;;;;;;16.67;13.48;;;;;;;16.62;65.53;102153.44;5045340;28;20064;-91
2022/06/17 04:42:32;;;;;;;16.50;13.60;;;;;;;16.65;65.97;102156.84;5058476;28;20041;-92
2022/06/17 04:44:57;;;;;;;;;;;;;;;16.84;64.48;102162.06;5050305;28;20029;-92
2022/06/17 04:47:23;;;;;;;17.45;14.32;;;;;;;16.86;65.45;102149.44;5054004;28;19916;-92
2022/06/17 04:49:52;;;;;;;16.10;13.38;;;;;;;16.95;65.01;102152.53;5053536;28;20028;-92
2022/06/17 04:52:38;;;;;;;14.75;13.23;;;;;;;16.99;64.66;102148.72;5053954;28;20039;-92
2022/06/17 04:55:09;;;;;;;16.10;13.55;;;;;;;17.03;65.15;102147.59;5043590;28;20124;-92
2022/06/17 04:57:38;;;;;;;14.38;12.88;;;;;;;17.09;64.84;102140.03;5039547;28;20010;-91
2022/06/17 05:00:04;;;;;;;20.17;13.25;;;;;;;17.11;64.64;102137.25;5045540;28;20029;-91
2022/06/17 05:02:32;;;;;;;16.33;13.60;;;;;;;17.09;64.46;102129.25;5062247;28;20059;-90
2022/06/17 05:05:02;;;;;;;18.38;13.35;;;;;;;17.15;64.66;102139.69;5046443;28;20042;-90
2022/06/17 05:07:32;;;;;;;18.05;13.00;;;;;;;17.19;63.48;102124.25;5079435;28;20049;-90
2022/06/17 05:10:08;;;;;;;13.73;12.25;;;;;;;17.30;63.21;102129.84;5080555;28;20033;-91
2022/06/17 05:12:38;;;;;;;17.27;13.73;;;;;;;17.47;63.44;102134.22;5054506;28;20082;-92
2022/06/17 05:15:14;;;;;;;16.77;13.07;;;;;;;17.59;63.28;102133.50;5068250;28;20151;-90
2022/06/17 05:17:40;;;;;;;14.32;12.85;;;;;;;17.67;63.07;102133.03;5051258;28;20036;-91
2022/06/17 05:20:07;;;;;;;20.23;13.02;;;;;;;17.74;62.85;102130.84;5050366;28;20030;-92
2022/06/17 05:22:37;;;;;;;17.10;12.43;;;;;;;17.81;62.55;102141.19;5054595;28;20017;-91
2022/06/17 05:25:06;;;;;;;14.75;12.68;;;;;;;17.96;62.36;102139.38;5061307;28;20082;-91
2022/06/17 05:27:32;;;;;;;16.65;12.18;;;;;;;18.11;61.73;102140.28;5044939;28;20040;-93
2022/06/17 05:29:57;;;;;;;13.70;11.77;;;;;;;18.13;60.69;102141.03;5054354;28;20025;-92
2022/06/17 05:32:23;;;;;;;14.32;11.27;;;;;;;18.15;61.40;102133.72;5063442;28;20017;-93
2022/06/17 05:34:49;;;;;;;12.60;10.77;;;;;;;18.20;60.42;102133.44;5060535;28;20073;-92
2022/06/17 05:37:15;;;;;;;17.48;11.23;;;;;;;18.19;59.68;102131.72;5051265;28;20037;-92
2022/06/17 05:39:40;;;;;;;15.40;11.43;;;;;;;18.21;59.99;102136.03;5052919;28;20030;-91
2022/06/17 05:42:07;;;;;;;14.32;11.98;;;;;;;18.28;60.13;102140.09;5058004;28;20059;-91
2022/06/17 05:44:33;;;;;;;15.75;12.23;;;;;;;18.31;59.47;102142.59;5049106;28;20043;-91
2022/06/17 05:46:58;;;;;;;16.60;11.77;;;;;;;18.38;59.90;102135.81;5047756;28;20036;-91
2022/06/17 05:49:24;;;;;;;15.68;12.75;;;;;;;18.52;58.70;102136.78;5052628;28;20032;-91
2022/06/17 05:51:50;;;;;;;13.70;12.35;;;;;;;18.57;58.61;102121.19;5058318;28;20059;-91
2022/06/17 05:54:15;;;;;;;14.57;13.07;;;;;;;18.59;58.46;102125.50;5043080;28;20091;-92
2022/06/17 05:56:40;;;;;;;17.65;12.98;;;;;;;18.69;58.15;102130.34;5085722;28;20120;-88
2022/06/17 05:59:06;;;;;;;17.80;13.60;;;;;;;18.72;58.64;102127.44;5058911;28;20374;-89
2022/06/17 06:01:31;;;;;;;15.00;12.98;;;;;;;18.71;59.17;102114.94;5047126;28;20025;-91
2022/06/17 06:03:57;;;;;;;15.27;13.32;;;;;;;18.69;59.09;102101.53;5052457;28;20056;-92
2022/06/17 06:06:22;;;;;;;18.10;12.98;;;;;;;18.73;59.83;102113.00;5049467;28;20049;-91
2022/06/17 06:08:47;;;;;;;16.95;12.88;;;;;;;18.80;59.39;102111.63;5048907;28;20021;-91
2022/06/17 06:11:13;;;;;;;17.85;12.38;;;;;;;18.86;59.44;102112.09;5048725;28;20024;-91
2022/06/17 06:13:38;;;;;;;15.35;11.98;;;;;;;18.95;58.69;102098.97;5051185;28;20184;-91
2022/06/17 06:16:04;;;;;;;14.02;12.23;;;;;;;19.02;59.22;102109.28;5049057;28;20021;-90
2022/06/17 06:18:36;;;;;;;13.50;12.10;;;;;;;19.12;57.68;102104.13;5055952;28;20035;-92
2022/06/17 06:21:04;;;;;;;13.95;11.77;;;;;;;19.21;57.58;102098.09;5048517;28;20036;-90
2022/06/17 06:23:33;;;;;;;14.98;11.70;;;;;;;19.29;56.54;102109.25;5051484;28;20120;-92
2022/06/17 06:25:59;;;;;;;13.82;11.93;;;;;;;19.26;58.23;102106.75;5052039;28;20028;-91
2022/06/17 06:28:26;;;;;;;13.50;12.10;;;;;;;19.26;58.75;102104.03;5056403;28;20047;-91
2022/06/17 06:30:56;;;;;;;14.20;12.35;;;;;;;19.21;58.62;102099.94;5059970;28;20036;-90
2022/06/17 06:33:21;;;;;;;16.10;12.43;;;;;;;19.19;58.80;102096.44;5060730;28;20041;-91
2022/06/17 06:35:47;;;;;;;15.15;12.27;;;;;;;19.25;58.74;102109.56;5064187;28;20039;-89
2022/06/17 06:38:12;;;;;;;13.70;12.10;;;;;;;19.30;58.76;102110.09;5059824;28;20029;-92
2022/06/17 06:40:38;;;;;;;15.65;11.85;;;;;;;19.41;58.55;102111.09;5058846;28;20086;-93
2022/06/17 06:43:20;;;;;;;15.98;12.02;;;;;;;19.52;58.73;102115.78;5050947;28;20032;-95
2022/06/17 06:45:49;;;;;;;14.80;12.15;;;;;;;19.60;58.22;102118.81;5059725;28;20041;-95
2022/06/17 06:48:17;;;;;;;15.50;12.00;;;;;;;19.82;57.94;102131.75;5063473;28;20021;-95
2022/06/17 06:50:43;;;;;;;15.68;11.55;;;;;;;19.96;57.53;102124.50;5068870;28;20090;-95
2022/06/17 06:53:09;;;;;;;16.50;11.45;;;;;;;20.14;56.67;102125.91;5056417;28;20021;-94
2022/06/17 06:55:36;;;;;;;12.40;11.13;;;;;;;20.33;55.43;102123.63;5062291;28;20021;-96
2022/06/17 06:58:13;;;;;;;12.55;11.10;;;;;;;20.45;55.69;102118.31;5062120;28;20017;-96
2022/06/17 07:00:42;;;;;;;12.15;10.93;;;;;;;20.55;55.11;102124.81;5057266;28;20033;-95
2022/06/17 07:03:08;;;;;;;12.75;11.43;;;;;;;20.68;55.90;102124.75;5070220;28;20029;-95
2022/06/17 07:05:36;;;;;;;15.07;11.32;;;;;;;20.79;54.47;102124.84;5062578;28;20045;-94
2022/06/17 07:08:03;;;;;;;14.18;11.10;;;;;;;20.95;54.60;102133.56;5067614;28;20393;-94
2022/06/17 07:10:32;;;;;;;13.00;10.85;;;;;;;21.09;53.98;102138.81;5068374;28;20029;-95
2022/06/17 07:12:58;;;;;;;12.43;10.10;;;;;;;21.07;53.98;102115.56;5495950;22;20025;-92
2022/06/17 07:15:23;;;;;;;14.60;10.00;;;;;;;21.31;54.10;102105.53;5059874;28;20053;-94
2022/06/17 07:18:01;;;;;;;11.77;10.07;;;;;;;21.95;53.91;102134.09;5039019;28;20027;-89
2022/06/17 07:20:36;;;;;;;13.23;10.00;;;;;;;22.33;51.91;102133.81;5055296;28;20666;-90
2022/06/17 07:23:06;;;;;;;11.68;9.65;;;;;;;22.65;50.58;102124.88;5043421;28;20112;-86
2022/06/17 07:25:32;;;;;;;13.02;9.65;;;;;;;22.93;49.79;102128.94;5042672;28;20040;-89
2022/06/17 07:27:57;;;;;;;11.35;8.38;;;;;;;22.99;49.49;102126.59;5052841;28;20032;-88
2022/06/17 07:30:23;;;;;;;11.18;8.32;;;;;;;23.26;49.04;102130.69;5050489;28;20112;-88
2022/06/17 07:32:49;;;;;;;8.38;7.50;;;;;;;23.43;48.36;102124.69;5051960;28;20036;-90
2022/06/17 07:35:15;;;;;;;9.70;8.00;;;;;;;23.61;47.52;102122.25;5043899;28;20412;-87
2022/06/17 07:40:27;;;;;;;8.75;6.45;;;;;;;24.39;46.18;102114.59;5051342;28;20079;-86
2022/06/17 07:42:53;;;;;;;11.65;6.35;;;;;;;24.76;45.26;102123.03;5054994;28;20048;-87
2022/06/17 07:45:19;;;;;;;8.55;5.93;;;;;;;24.93;43.88;102116.88;5049221;28;20426;-88
2022/06/17 07:47:48;;;;;;;8.82;6.20;;;;;;;24.95;43.48;102116.75;5047325;28;20063;-87
2022/06/17 07:50:19;;;;;;;8.02;5.28;;;;;;;24.94;43.31;102106.84;5056018;28;20029;-86
2022/06/17 07:52:45;;;;;;;7.75;5.40;;;;;;;25.13;42.28;102117.81;5055204;28;20020;-91
2022/06/17 07:55:10;;;;;;;5.65;4.75;;;;;;;25.55;42.77;102120.25;5060399;28;20029;-95
2022/06/17 07:57:36;;;;;;;6.80;4.78;;;;;;;25.99;39.91;102113.28;5064871;28;20028;-94
2022/06/17 08:00:04;;;;;;;4.95;4.10;;;;;;;26.51;39.44;102112.84;5059271;28;20021;-88
2022/06/17 08:02:29;;;;;;;4.90;3.78;;;;;;;27.18;38.54;102121.63;5063784;28;20052;-92
2022/06/17 08:04:54;;;;;;;6.90;4.20;;;;;;;27.77;37.33;102115.50;5049999;28;20025;-88
2022/06/17 08:07:20;;;;;;;6.28;3.67;;;;;;;28.26;36.37;102106.75;5053412;28;20034;-91
2022/06/17 08:09:45;;;;;;;4.75;4.28;;;;;;;28.51;35.17;102119.56;5050985;28;20052;-86
2022/06/17 08:12:13;;;;;;;7.50;4.20;;;;;;;28.64;35.38;102116.34;5055794;28;20047;-89
2022/06/17 08:14:46;;;;;;;6.70;4.10;;;;;;;29.00;34.01;102122.44;5062232;28;20037;-88
2022/06/17 08:17:13;;;;;;;5.53;3.83;;;;;;;29.01;34.03;102134.25;5049585;28;20108;-88
2022/06/17 08:19:40;;;;;;;5.65;4.15;;;;;;;28.83;34.16;102137.09;5054690;28;20040;-88
2022/06/17 08:22:05;;;;;;;4.35;3.95;;;;;;;28.45;34.19;102136.63;5052807;28;20021;-87
2022/06/17 08:24:31;;;;;;;6.60;3.92;;;;;;;28.35;33.15;102126.81;5040437;28;20403;-85
2022/06/17 08:26:56;;;;;;;5.00;3.25;;;;;;;28.94;33.77;102139.53;5053227;28;20029;-86
2022/06/17 08:29:22;;;;;;;4.55;3.25;;;;;;;30.05;31.98;102122.63;5062591;28;20048;-87
2022/06/17 08:31:47;;;;;;;6.05;3.60;;;;;;;31.13;28.80;102135.78;5054294;28;20474;-88
2022/06/17 08:34:12;;;;;;;6.00;3.30;;;;;;;31.61;29.06;102139.22;5052586;28;20418;-89
2022/06/17 08:36:40;;;;;;;4.80;3.63;;;;;;;31.58;27.92;102134.09;5068743;28;20104;-89
2022/06/17 08:39:09;;;;;;;3.40;3.10;;;;;;;32.08;28.55;102136.19;5053217;28;20165;-87
2022/06/17 08:41:48;;;;;;;4.15;2.88;;;;;;;32.67;26.78;102121.56;5055195;28;20025;-87
2022/06/17 08:44:16;;;;;;;5.68;3.65;;;;;;;32.54;26.53;102113.13;5054301;28;20421;-88
2022/06/17 08:47:12;;;;;;;6.40;3.50;;;;;;;32.87;27.83;102105.25;5052506;28;20028;-88
2022/06/17 08:49:49;;;;;;;6.05;3.55;;;;;;;32.70;27.22;102111.00;5056076;28;20025;-88
2022/06/17 08:52:20;;;;;;;4.65;3.83;;;;;;;31.85;27.24;102110.63;5057333;28;20371;-86
2022/06/17 08:54:45;;;;;;;10.52;4.75;;;;;;;31.42;26.67;102108.41;5052325;28;20029;-86
2022/06/17 08:57:29;;;;;;;6.43;3.63;;;;;;;31.22;28.35;102109.91;5055524;28;20060;-87
2022/06/17 09:00:05;;;;;;;6.00;3.97;;;;;;;31.26;29.49;102117.63;5053639;28;20295;-86
2022/06/17 09:02:49;;;;;;;9.40;4.10;;;;;;;31.60;28.80;102126.47;5054139;28;20028;-87
2022/06/17 09:05:30;;;;;;;7.20;4.28;;;;;;;32.16;26.96;102114.06;5056422;28;20044;-87
2022/06/17 09:08:34;;;;;;;6.65;5.10;;;;;;;32.79;25.57;102119.16;5046850;28;20079;-87
2022/06/17 09:11:15;;;;;;;10.70;5.15;;;;;;;33.14;25.29;102128.47;5038853;28;20037;-87
2022/06/17 09:13:55;;;;;;;6.75;4.20;;;;;;;33.92;24.57;102134.94;5030593;28;20202;-88
2022/06/17 09:16:33;;;;;;;5.57;4.25;;;;;;;34.30;23.00;102118.00;5032448;28;20041;-89
2022/06/17 09:19:02;;;;;;;4.43;3.80;;;;;;;34.60;22.09;102127.72;5027891;28;20037;-86
2022/06/17 09:21:52;;;;;;;7.68;3.80;;;;;;;35.56;23.65;102124.78;5030643;28;20437;-87
2022/06/17 09:24:26;;;;;;;6.82;4.68;;;;;;;35.63;21.04;102117.34;5031849;28;20043;-87
2022/06/17 09:27:01;;;;;;;6.53;4.75;;;;;;;35.76;21.44;102108.16;5030752;28;20041;-88
2022/06/17 09:29:36;;;;;;;8.35;4.95;;;;;;;35.74;21.66;102103.91;5031417;28;20050;-88
2022/06/17 09:32:12;;;;;;;7.43;4.43;;;;;;;36.17;21.78;102105.13;5033529;28;20126;-87
2022/06/17 09:34:56;;;;;;;7.05;4.15;;;;;;;37.16;21.14;102114.06;5030997;28;20125;-89
2022/06/17 09:37:33;;;;;;;6.90;4.20;;;;;;;37.88;20.33;102114.63;5041035;28;20072;-87
2022/06/17 09:40:13;;;;;;;6.68;4.10;;;;;;;38.58;19.84;102117.84;5037063;28;20033;-87
2022/06/17 09:42:54;;;;;;;7.15;4.40;;;;;;;38.50;19.07;102126.56;5042971;28;20022;-88
2022/06/17 09:45:35;;;;;;;6.55;3.53;;;;;;;38.97;19.98;102112.88;5027438;28;20029;-86
2022/06/17 09:48:11;;;;;;;5.45;3.50;;;;;;;39.69;18.56;102117.53;5059759;28;20132;-87
2022/06/17 09:51:04;;;;;;;6.05;3.80;;;;;;;40.44;18.77;102113.94;5065945;28;20021;-88
2022/06/17 09:53:40;;;;;;;6.82;3.75;;;;;;;39.84;18.08;102120.69;5069723;28;20021;-87
2022/06/17 09:56:15;;;;;;;6.72;3.38;;;;;;;38.71;17.75;102111.28;5068066;28;20029;-88
2022/06/17 09:58:54;;;;;;;6.68;3.63;;;;;;;38.60;19.17;102121.28;5066608;28;20029;-86
2022/06/17 10:01:20;;;;;;;5.45;3.15;;;;;;;38.98;17.67;102110.94;5057902;28;20048;-87
2022/06/17 10:03:45;;;;;;;4.20;2.95;;;;;;;39.27;17.14;102123.16;5062335;28;20081;-87
2022/06/17 10:06:26;;;;;;;5.45;3.38;;;;;;;39.22;17.88;102117.44;5066627;28;20017;-88
2022/06/17 10:09:21;;;;;;;4.05;3.20;;;;;;;39.69;18.16;102111.97;5067773;28;20021;-87
2022/06/17 10:12:04;;;;;;;4.20;2.90;;;;;;;39.42;17.77;102106.81;5054694;28;20059;-87
2022/06/17 10:14:53;;;;;;;5.82;3.38;;;;;;;40.14;18.31;102103.84;5061572;28;20087;-87
2022/06/17 10:20:49;;;;;;;8.10;2.92;;;;;;;41.64;16.40;102086.84;5056747;28;20067;-87
2022/06/17 10:23:26;;;;;;;4.47;2.50;;;;;;;41.45;16.30;102086.28;5065221;28;20021;-88
2022/06/17 10:26:21;;;;;;;6.07;2.72;;;;;;;41.59;16.29;102086.78;5057041;28;20025;-90
2022/06/17 10:29:03;;;;;;;5.35;2.60;;;;;;;41.55;16.60;102086.44;5050089;28;20033;-88
2022/06/17 10:31:41;;;;;;;4.53;2.45;;;;;;;41.78;15.92;102080.66;5060380;28;20040;-87
2022/06/17 10:34:12;;;;;;;2.67;2.20;;;;;;;41.90;15.23;102082.53;5049447;28;20028;-89
2022/06/17 10:36:39;;;;;;;4.03;2.43;;;;;;;41.53;14.65;102069.94;5042781;28;20034;-89
2022/06/17 10:39:10;;;;;;;2.78;2.55;;;;;;;41.47;15.13;102070.97;5063673;28;20072;-86
2022/06/17 10:41:36;;;;;;;4.22;2.90;;;;;;;41.14;15.16;102082.97;5063313;28;20031;-86
2022/06/17 10:44:03;;;;;;;2.90;2.25;;;;;;;40.71;14.67;102089.97;5049141;28;20017;-84
2022/06/17 10:46:32;;;;;;;6.38;2.30;;;;;;;40.57;15.12;102086.63;5047416;28;20025;-85
2022/06/17 10:49:29;;;;;;;3.00;1.90;;;;;;;41.29;14.99;102087.94;5048914;28;20036;-86
2022/06/17 10:51:56;;;;;;;2.25;1.88;;;;;;;41.61;13.74;102073.41;5057818;28;20025;-84
2022/06/17 10:54:38;;;;;;;3.13;2.10;;;;;;;41.62;15.08;102069.50;5051327;28;20022;-85
2022/06/17 10:57:09;;;;;;;3.75;1.88;;;;;;;41.92;14.90;102072.75;5047916;28;20039;-83
2022/06/17 10:59:39;;;;;;;3.88;2.75;;;;;;;42.77;14.51;102064.91;5049171;28;20029;-85
2022/06/17 11:02:21;;;;;;;4.32;1.70;;;;;;;43.09;12.67;102066.88;5044680;28;20025;-86
2022/06/17 11:04:52;;;;;;;2.25;1.75;;;;;;;43.09;13.01;102059.31;5049435;28;20025;-86
2022/06/17 11:07:26;;;;;;;3.33;1.83;;;;;;;42.60;13.28;102067.78;5052351;28;20035;-85
2022/06/17 11:09:56;;;;;;;2.22;1.75;;;;;;;42.42;13.46;102068.09;5049331;28;20033;-85
2022/06/17 11:12:27;;;;;;;3.08;1.67;;;;;;;42.57;12.57;102064.66;5054871;28;20017;-86
2022/06/17 11:14:55;;;;;;;3.10;1.73;;;;;;;42.70;12.71;102055.84;5051395;28;20044;-86
2022/06/17 11:17:32;;;;;;;2.33;1.77;;;;;;;43.21;13.93;102047.94;5060853;28;20063;-86
2022/06/17 11:20:03;;;;;;;4.50;2.00;;;;;;;43.83;12.87;102052.00;5060028;28;20605;-86
2022/06/17 11:22:34;;;;;;;2.35;1.75;;;;;;;44.02;12.08;102052.41;5061002;28;20080;-86
2022/06/17 11:25:23;;;;;;;4.25;1.58;;;;;;;44.41;12.65;102050.91;5047660;28;20052;-85
2022/06/17 11:27:54;;;;;;;1.88;1.60;;;;;;;44.12;12.65;102039.25;5054870;28;20052;-86
2022/06/17 11:30:24;;;;;;;2.38;1.70;;;;;;;43.82;13.10;102025.94;5054229;28;20063;-86
2022/06/17 11:32:51;;;;;;;3.88;2.20;;;;;;;44.10;12.65;102030.25;5053061;28;20070;-86
2022/06/17 11:35:19;;;;;;;1.98;1.60;;;;;;;44.64;12.18;102029.06;5054061;28;20067;-87
2022/06/17 11:37:47;;;;;;;2.00;1.30;;;;;;;44.87;11.42;102022.06;5046968;28;20381;-87
2022/06/17 11:40:19;;;;;;;3.63;1.60;;;;;;;44.41;11.72;102025.63;5049126;28;20087;-87
2022/06/17 11:42:57;;;;;;;2.30;1.30;;;;;;;43.82;11.90;102006.31;5053564;28;20027;-86